Terminal Aerodrome Forecast
Issued by NWS

Home | Current Version | Previous Version | Graphics & Text | Print | Product List | Glossary On
Versions: 1 2 3 4 5 6 7 8 9 10 11 12 13 14 15 16 17
000
FTUS43 KGRB 232300 RRA
TAFATW
TAF
KATW 232345Z 2400/2424 24011G18KT P6SM SCT250
     FM240300 22016G25KT 6SM BLSN SCT080 BKN120 WS012/23040KT
     FM241100 24017G26KT 4SM -SN BLSN SCT035 OVC070 WS012/24040KT
      TEMPO 2412/2416 1 1/2SM -SN BLSN OVC035
     FM241700 28016G25KT 6SM BLSN BKN050=

USA.gov is the U.S. government's official web portal to all federal, state and local government web resources and services.